sensor_id;sensor_type;location;lat;lon;timestamp;pressure;altitude;pressure_sealevel;temperature;humidity
62978;BME280;49073;42.352;23.808;2023-08-31T00:01:39;94168.94;;;18.58;65.13
62978;BME280;49073;42.352;23.808;2023-08-31T00:04:39;94161.25;;;18.57;65.31
62978;BME280;49073;42.352;23.808;2023-08-31T00:07:40;94154.97;;;18.43;65.22
62978;BME280;49073;42.352;23.808;2023-08-31T00:10:41;94156.31;;;18.35;64.93
62978;BME280;49073;42.352;23.808;2023-08-31T00:13:42;94155.13;;;18.16;65.86
62978;BME280;49073;42.352;23.808;2023-08-31T00:16:43;94151.78;;;18.08;66.23
62978;BME280;49073;42.352;23.808;2023-08-31T00:19:46;94148.97;;;18.15;65.62
62978;BME280;49073;42.352;23.808;2023-08-31T00:22:46;94149.03;;;18.12;66.18
62978;BME280;49073;42.352;23.808;2023-08-31T00:25:47;94156.78;;;18.10;66.89
62978;BME280;49073;42.352;23.808;2023-08-31T00:28:48;94149.72;;;18.16;66.19
62978;BME280;49073;42.352;23.808;2023-08-31T00:31:49;94149.16;;;18.25;66.33
62978;BME280;49073;42.352;23.808;2023-08-31T00:34:50;94145.44;;;18.18;66.01
62978;BME280;49073;42.352;23.808;2023-08-31T00:37:50;94151.94;;;18.21;65.80
62978;BME280;49073;42.352;23.808;2023-08-31T00:40:51;94148.81;;;18.23;65.57
62978;BME280;49073;42.352;23.808;2023-08-31T00:43:52;94156.91;;;18.23;65.86
62978;BME280;49073;42.352;23.808;2023-08-31T00:46:53;94156.38;;;18.11;66.08
62978;BME280;49073;42.352;23.808;2023-08-31T00:49:53;94154.22;;;18.02;66.52
62978;BME280;49073;42.352;23.808;2023-08-31T00:52:54;94161.91;;;18.04;65.50
62978;BME280;49073;42.352;23.808;2023-08-31T00:55:54;94160.03;;;18.21;64.41
62978;BME280;49073;42.352;23.808;2023-08-31T00:58:55;94155.97;;;18.33;63.90
62978;BME280;49073;42.352;23.808;2023-08-31T01:01:59;94156.06;;;18.26;64.18
62978;BME280;49073;42.352;23.808;2023-08-31T01:05:16;94155.19;;;18.32;64.87
62978;BME280;49073;42.352;23.808;2023-08-31T01:08:40;94168.66;;;18.32;65.52
62978;BME280;49073;42.352;23.808;2023-08-31T01:14:56;94177.25;;;18.27;65.58
62978;BME280;49073;42.352;23.808;2023-08-31T01:18:00;94173.22;;;18.15;65.33
62978;BME280;49073;42.352;23.808;2023-08-31T01:21:23;94176.06;;;18.28;64.21
62978;BME280;49073;42.352;23.808;2023-08-31T01:24:25;94175.03;;;18.42;63.09
62978;BME280;49073;42.352;23.808;2023-08-31T01:27:26;94177.09;;;18.55;63.29
62978;BME280;49073;42.352;23.808;2023-08-31T01:30:30;94182.91;;;18.53;64.23
62978;BME280;49073;42.352;23.808;2023-08-31T01:37:40;94190.59;;;18.35;63.24
62978;BME280;49073;42.352;23.808;2023-08-31T01:40:49;94188.31;;;18.33;63.54
62978;BME280;49073;42.352;23.808;2023-08-31T01:43:54;94187.06;;;18.17;64.44
62978;BME280;49073;42.352;23.808;2023-08-31T01:47:03;94184.50;;;18.10;64.62
62978;BME280;49073;42.352;23.808;2023-08-31T01:50:06;94184.94;;;18.09;65.24
62978;BME280;49073;42.352;23.808;2023-08-31T01:53:06;94188.81;;;18.08;65.52
62978;BME280;49073;42.352;23.808;2023-08-31T01:56:07;94194.41;;;18.17;64.97
62978;BME280;49073;42.352;23.808;2023-08-31T01:59:08;94180.03;;;18.00;65.60
62978;BME280;49073;42.352;23.808;2023-08-31T02:02:08;94191.75;;;18.13;64.76
62978;BME280;49073;42.352;23.808;2023-08-31T02:05:09;94200.50;;;18.21;63.81
62978;BME280;49073;42.352;23.808;2023-08-31T02:08:10;94197.03;;;18.21;64.29
62978;BME280;49073;42.352;23.808;2023-08-31T02:11:10;94196.28;;;18.40;63.72
62978;BME280;49073;42.352;23.808;2023-08-31T02:14:11;94183.88;;;18.43;63.17
62978;BME280;49073;42.352;23.808;2023-08-31T02:17:11;94195.44;;;18.43;63.80
62978;BME280;49073;42.352;23.808;2023-08-31T02:20:12;94196.19;;;18.44;63.43
62978;BME280;49073;42.352;23.808;2023-08-31T02:23:14;94202.50;;;18.37;63.41
62978;BME280;49073;42.352;23.808;2023-08-31T02:26:14;94199.84;;;18.13;64.25
62978;BME280;49073;42.352;23.808;2023-08-31T02:29:15;94190.31;;;18.09;64.98
62978;BME280;49073;42.352;23.808;2023-08-31T02:32:15;94201.94;;;18.06;65.81
62978;BME280;49073;42.352;23.808;2023-08-31T02:35:16;94203.16;;;18.01;66.46
62978;BME280;49073;42.352;23.808;2023-08-31T02:38:16;94192.94;;;18.12;66.15
62978;BME280;49073;42.352;23.808;2023-08-31T02:41:17;94184.63;;;18.03;66.16
62978;BME280;49073;42.352;23.808;2023-08-31T02:44:17;94192.81;;;17.96;66.67
62978;BME280;49073;42.352;23.808;2023-08-31T02:47:18;94194.53;;;18.10;67.62
62978;BME280;49073;42.352;23.808;2023-08-31T02:50:19;94191.63;;;18.21;66.79
62978;BME280;49073;42.352;23.808;2023-08-31T02:53:19;94195.50;;;18.20;69.04
62978;BME280;49073;42.352;23.808;2023-08-31T02:56:20;94191.97;;;18.02;67.82
62978;BME280;49073;42.352;23.808;2023-08-31T02:59:21;94207.75;;;17.80;68.53
62978;BME280;49073;42.352;23.808;2023-08-31T03:02:22;94205.69;;;17.64;68.26
62978;BME280;49073;42.352;23.808;2023-08-31T03:05:22;94202.94;;;17.44;68.49
62978;BME280;49073;42.352;23.808;2023-08-31T03:08:23;94204.22;;;17.59;67.44
62978;BME280;49073;42.352;23.808;2023-08-31T03:11:23;94208.28;;;17.48;69.67
62978;BME280;49073;42.352;23.808;2023-08-31T03:14:24;94217.69;;;17.59;69.93
62978;BME280;49073;42.352;23.808;2023-08-31T03:17:24;94216.50;;;17.60;70.52
62978;BME280;49073;42.352;23.808;2023-08-31T03:20:25;94222.38;;;17.55;69.41
62978;BME280;49073;42.352;23.808;2023-08-31T03:23:26;94217.13;;;17.72;67.35
62978;BME280;49073;42.352;23.808;2023-08-31T03:26:27;94226.00;;;17.45;68.11
62978;BME280;49073;42.352;23.808;2023-08-31T03:29:27;94234.31;;;17.54;67.95
62978;BME280;49073;42.352;23.808;2023-08-31T03:32:29;94227.16;;;17.44;68.65
62978;BME280;49073;42.352;23.808;2023-08-31T03:35:32;94227.84;;;17.24;69.03
62978;BME280;49073;42.352;23.808;2023-08-31T03:38:32;94227.31;;;17.33;69.25
62978;BME280;49073;42.352;23.808;2023-08-31T03:41:37;94227.16;;;17.20;69.51
62978;BME280;49073;42.352;23.808;2023-08-31T03:44:38;94235.41;;;17.33;68.83
62978;BME280;49073;42.352;23.808;2023-08-31T03:47:38;94237.25;;;17.12;68.89
62978;BME280;49073;42.352;23.808;2023-08-31T03:50:39;94237.25;;;17.12;69.07
62978;BME280;49073;42.352;23.808;2023-08-31T03:53:40;94241.25;;;17.00;69.74
62978;BME280;49073;42.352;23.808;2023-08-31T03:56:40;94246.53;;;17.08;69.37
62978;BME280;49073;42.352;23.808;2023-08-31T03:59:41;94260.00;;;17.08;69.59
62978;BME280;49073;42.352;23.808;2023-08-31T04:02:44;94249.50;;;17.17;68.57
62978;BME280;49073;42.352;23.808;2023-08-31T04:05:45;94263.09;;;17.06;69.17
62978;BME280;49073;42.352;23.808;2023-08-31T04:08:46;94284.22;;;17.08;69.85
62978;BME280;49073;42.352;23.808;2023-08-31T04:11:46;94284.88;;;17.19;69.83
62978;BME280;49073;42.352;23.808;2023-08-31T04:14:47;94297.31;;;17.06;70.33
62978;BME280;49073;42.352;23.808;2023-08-31T04:17:47;94296.31;;;16.92;70.78
62978;BME280;49073;42.352;23.808;2023-08-31T04:20:51;94293.97;;;16.94;71.41
62978;BME280;49073;42.352;23.808;2023-08-31T04:23:52;94297.44;;;16.95;71.74
62978;BME280;49073;42.352;23.808;2023-08-31T04:26:52;94305.84;;;17.00;72.17
62978;BME280;49073;42.352;23.808;2023-08-31T04:29:54;94311.91;;;17.08;72.44
62978;BME280;49073;42.352;23.808;2023-08-31T04:32:55;94312.19;;;17.18;71.59
62978;BME280;49073;42.352;23.808;2023-08-31T04:35:55;94326.59;;;17.35;71.94
62978;BME280;49073;42.352;23.808;2023-08-31T04:38:56;94322.13;;;17.52;70.45
62978;BME280;49073;42.352;23.808;2023-08-31T04:41:57;94326.97;;;17.60;70.80
62978;BME280;49073;42.352;23.808;2023-08-31T04:44:57;94321.78;;;17.73;70.53
62978;BME280;49073;42.352;23.808;2023-08-31T04:47:58;94317.47;;;17.80;69.70
62978;BME280;49073;42.352;23.808;2023-08-31T04:50:58;94324.78;;;18.07;69.69
62978;BME280;49073;42.352;23.808;2023-08-31T04:53:59;94330.72;;;17.94;69.67
62978;BME280;49073;42.352;23.808;2023-08-31T04:57:00;94334.31;;;17.60;69.91
62978;BME280;49073;42.352;23.808;2023-08-31T05:00:01;94331.28;;;17.58;69.43
62978;BME280;49073;42.352;23.808;2023-08-31T05:03:01;94331.28;;;17.82;68.70
62978;BME280;49073;42.352;23.808;2023-08-31T05:06:02;94334.59;;;17.93;68.85
62978;BME280;49073;42.352;23.808;2023-08-31T05:09:04;94332.88;;;18.07;68.58
62978;BME280;49073;42.352;23.808;2023-08-31T05:12:06;94331.81;;;18.24;69.53
62978;BME280;49073;42.352;23.808;2023-08-31T05:15:08;94331.38;;;18.50;67.56
62978;BME280;49073;42.352;23.808;2023-08-31T05:18:09;94334.38;;;18.75;66.29
62978;BME280;49073;42.352;23.808;2023-08-31T05:21:10;94340.56;;;18.96;65.43
62978;BME280;49073;42.352;23.808;2023-08-31T05:24:10;94331.28;;;19.17;65.21
62978;BME280;49073;42.352;23.808;2023-08-31T05:27:11;94328.00;;;19.26;63.95
62978;BME280;49073;42.352;23.808;2023-08-31T05:30:12;94327.63;;;19.44;63.86
62978;BME280;49073;42.352;23.808;2023-08-31T05:33:12;94323.53;;;19.56;62.22
62978;BME280;49073;42.352;23.808;2023-08-31T05:36:13;94321.00;;;19.66;62.89
62978;BME280;49073;42.352;23.808;2023-08-31T05:39:13;94325.06;;;19.74;60.79
62978;BME280;49073;42.352;23.808;2023-08-31T05:42:16;94314.41;;;19.83;60.08
62978;BME280;49073;42.352;23.808;2023-08-31T05:45:17;94329.91;;;19.99;59.52
62978;BME280;49073;42.352;23.808;2023-08-31T05:48:17;94325.31;;;20.13;58.35
62978;BME280;49073;42.352;23.808;2023-08-31T05:51:18;94327.84;;;20.20;58.50
62978;BME280;49073;42.352;23.808;2023-08-31T05:54:18;94326.59;;;20.25;58.04
62978;BME280;49073;42.352;23.808;2023-08-31T05:57:19;94329.19;;;20.28;57.60
62978;BME280;49073;42.352;23.808;2023-08-31T06:00:21;94332.50;;;20.36;57.73
62978;BME280;49073;42.352;23.808;2023-08-31T06:03:22;94327.03;;;20.53;57.58
62978;BME280;49073;42.352;23.808;2023-08-31T06:06:22;94328.22;;;20.68;55.18
62978;BME280;49073;42.352;23.808;2023-08-31T06:09:23;94332.00;;;20.71;53.91
62978;BME280;49073;42.352;23.808;2023-08-31T06:12:23;94323.63;;;20.82;55.33
62978;BME280;49073;42.352;23.808;2023-08-31T06:15:24;94326.75;;;20.80;55.24
62978;BME280;49073;42.352;23.808;2023-08-31T06:18:24;94330.03;;;20.88;55.21
62978;BME280;49073;42.352;23.808;2023-08-31T06:21:25;94323.88;;;21.00;53.25
62978;BME280;49073;42.352;23.808;2023-08-31T06:24:26;94335.69;;;21.06;53.22
62978;BME280;49073;42.352;23.808;2023-08-31T06:27:26;94345.59;;;21.13;54.33
62978;BME280;49073;42.352;23.808;2023-08-31T06:30:27;94356.97;;;21.08;54.66
62978;BME280;49073;42.352;23.808;2023-08-31T06:33:27;94351.03;;;21.26;52.60
62978;BME280;49073;42.352;23.808;2023-08-31T06:36:28;94355.06;;;21.34;50.90
62978;BME280;49073;42.352;23.808;2023-08-31T06:39:28;94357.22;;;21.40;54.12
62978;BME280;49073;42.352;23.808;2023-08-31T06:42:29;94375.47;;;21.52;53.07
62978;BME280;49073;42.352;23.808;2023-08-31T06:45:30;94363.16;;;21.64;51.04
62978;BME280;49073;42.352;23.808;2023-08-31T06:48:30;94369.22;;;21.68;50.76
62978;BME280;49073;42.352;23.808;2023-08-31T06:51:34;94359.34;;;21.74;50.19
62978;BME280;49073;42.352;23.808;2023-08-31T06:54:35;94363.69;;;21.85;50.39
62978;BME280;49073;42.352;23.808;2023-08-31T06:57:35;94357.38;;;22.01;49.34
62978;BME280;49073;42.352;23.808;2023-08-31T07:00:37;94364.31;;;22.15;50.31
62978;BME280;49073;42.352;23.808;2023-08-31T07:03:38;94360.41;;;22.16;49.31
62978;BME280;49073;42.352;23.808;2023-08-31T07:06:38;94363.44;;;22.18;48.98
62978;BME280;49073;42.352;23.808;2023-08-31T07:09:42;94357.25;;;22.17;49.89
62978;BME280;49073;42.352;23.808;2023-08-31T07:12:43;94369.19;;;22.20;51.50
62978;BME280;49073;42.352;23.808;2023-08-31T07:15:43;94368.16;;;22.40;50.18
62978;BME280;49073;42.352;23.808;2023-08-31T07:18:44;94371.78;;;22.49;49.37
62978;BME280;49073;42.352;23.808;2023-08-31T07:21:44;94371.22;;;22.55;49.45
62978;BME280;49073;42.352;23.808;2023-08-31T07:24:47;94371.41;;;22.60;49.70
62978;BME280;49073;42.352;23.808;2023-08-31T07:27:47;94366.38;;;22.72;49.66
62978;BME280;49073;42.352;23.808;2023-08-31T07:30:48;94375.25;;;22.85;49.33
62978;BME280;49073;42.352;23.808;2023-08-31T07:33:48;94369.81;;;22.85;49.53
62978;BME280;49073;42.352;23.808;2023-08-31T07:36:49;94377.34;;;23.03;48.21
62978;BME280;49073;42.352;23.808;2023-08-31T07:39:49;94376.03;;;22.95;47.84
62978;BME280;49073;42.352;23.808;2023-08-31T07:42:51;94383.19;;;23.02;47.94
62978;BME280;49073;42.352;23.808;2023-08-31T07:45:53;94383.47;;;23.17;46.99
62978;BME280;49073;42.352;23.808;2023-08-31T07:48:53;94371.81;;;23.16;46.87
62978;BME280;49073;42.352;23.808;2023-08-31T07:51:54;94378.47;;;23.15;47.42
62978;BME280;49073;42.352;23.808;2023-08-31T07:54:55;94379.31;;;23.25;46.98
62978;BME280;49073;42.352;23.808;2023-08-31T07:57:55;94380.94;;;23.45;46.79
62978;BME280;49073;42.352;23.808;2023-08-31T08:00:56;94383.06;;;23.50;46.32
62978;BME280;49073;42.352;23.808;2023-08-31T08:03:56;94389.63;;;23.62;46.31
62978;BME280;49073;42.352;23.808;2023-08-31T08:06:57;94386.25;;;23.48;45.61
62978;BME280;49073;42.352;23.808;2023-08-31T08:09:57;94387.81;;;23.59;46.34
62978;BME280;49073;42.352;23.808;2023-08-31T08:12:58;94388.59;;;23.59;45.33
62978;BME280;49073;42.352;23.808;2023-08-31T08:15:59;94385.00;;;23.72;46.52
62978;BME280;49073;42.352;23.808;2023-08-31T08:18:59;94389.91;;;23.86;45.28
62978;BME280;49073;42.352;23.808;2023-08-31T08:22:00;94383.13;;;23.91;44.00
62978;BME280;49073;42.352;23.808;2023-08-31T08:25:00;94388.88;;;23.93;43.94
62978;BME280;49073;42.352;23.808;2023-08-31T08:28:01;94383.19;;;24.00;44.25
62978;BME280;49073;42.352;23.808;2023-08-31T08:31:02;94389.00;;;24.21;43.74
62978;BME280;49073;42.352;23.808;2023-08-31T08:34:05;94381.31;;;24.29;43.31
62978;BME280;49073;42.352;23.808;2023-08-31T08:37:09;94370.09;;;24.26;43.52
62978;BME280;49073;42.352;23.808;2023-08-31T08:40:09;94378.28;;;24.36;43.25
62978;BME280;49073;42.352;23.808;2023-08-31T08:43:10;94375.88;;;24.57;42.96
62978;BME280;49073;42.352;23.808;2023-08-31T08:46:11;94376.38;;;24.64;42.56
62978;BME280;49073;42.352;23.808;2023-08-31T08:49:13;94375.03;;;24.78;42.66
62978;BME280;49073;42.352;23.808;2023-08-31T08:52:15;94379.28;;;24.89;42.69
62978;BME280;49073;42.352;23.808;2023-08-31T08:55:16;94371.09;;;24.98;42.15
62978;BME280;49073;42.352;23.808;2023-08-31T08:58:17;94376.97;;;25.24;41.51
62978;BME280;49073;42.352;23.808;2023-08-31T09:01:18;94381.34;;;25.31;41.48
62978;BME280;49073;42.352;23.808;2023-08-31T09:04:22;94378.91;;;25.42;41.26
62978;BME280;49073;42.352;23.808;2023-08-31T09:07:24;94369.69;;;25.31;40.64
62978;BME280;49073;42.352;23.808;2023-08-31T09:10:25;94374.69;;;25.23;40.71
62978;BME280;49073;42.352;23.808;2023-08-31T09:13:32;94376.06;;;25.18;41.22
62978;BME280;49073;42.352;23.808;2023-08-31T09:16:33;94368.78;;;25.24;42.79
62978;BME280;49073;42.352;23.808;2023-08-31T09:19:34;94368.75;;;25.43;40.72
62978;BME280;49073;42.352;23.808;2023-08-31T09:22:35;94367.09;;;25.27;41.04
62978;BME280;49073;42.352;23.808;2023-08-31T09:25:45;94358.19;;;25.26;41.52
62978;BME280;49073;42.352;23.808;2023-08-31T09:28:49;94362.84;;;25.45;40.86
62978;BME280;49073;42.352;23.808;2023-08-31T09:31:49;94375.88;;;25.40;40.05
62978;BME280;49073;42.352;23.808;2023-08-31T09:34:50;94369.22;;;25.23;40.69
62978;BME280;49073;42.352;23.808;2023-08-31T09:37:57;94376.22;;;25.05;41.32
62978;BME280;49073;42.352;23.808;2023-08-31T09:41:07;94377.28;;;25.17;41.48
62978;BME280;49073;42.352;23.808;2023-08-31T09:44:18;94379.41;;;25.22;41.67
62978;BME280;49073;42.352;23.808;2023-08-31T09:47:19;94379.41;;;25.04;40.84
62978;BME280;49073;42.352;23.808;2023-08-31T09:50:20;94376.06;;;24.99;40.67
62978;BME280;49073;42.352;23.808;2023-08-31T09:53:29;94379.88;;;24.93;39.44
62978;BME280;49073;42.352;23.808;2023-08-31T09:56:32;94380.03;;;25.08;40.44
62978;BME280;49073;42.352;23.808;2023-08-31T09:59:33;94382.69;;;25.54;41.19
62978;BME280;49073;42.352;23.808;2023-08-31T10:02:36;94372.53;;;25.55;40.06
62978;BME280;49073;42.352;23.808;2023-08-31T10:05:37;94375.69;;;25.63;41.08
62978;BME280;49073;42.352;23.808;2023-08-31T10:08:39;94374.50;;;25.45;39.29
62978;BME280;49073;42.352;23.808;2023-08-31T10:11:41;94373.91;;;25.41;40.15
62978;BME280;49073;42.352;23.808;2023-08-31T10:14:42;94369.53;;;25.34;39.41
62978;BME280;49073;42.352;23.808;2023-08-31T10:17:47;94360.28;;;25.32;39.18
62978;BME280;49073;42.352;23.808;2023-08-31T10:20:48;94368.31;;;25.26;39.99
62978;BME280;49073;42.352;23.808;2023-08-31T10:23:49;94371.78;;;25.45;38.95
62978;BME280;49073;42.352;23.808;2023-08-31T10:26:50;94373.88;;;25.60;38.98
62978;BME280;49073;42.352;23.808;2023-08-31T10:29:50;94378.25;;;25.66;39.92
62978;BME280;49073;42.352;23.808;2023-08-31T10:39:16;94377.56;;;25.38;41.05
62978;BME280;49073;42.352;23.808;2023-08-31T10:42:17;94374.69;;;25.41;40.30
62978;BME280;49073;42.352;23.808;2023-08-31T10:45:21;94380.44;;;25.34;40.45
62978;BME280;49073;42.352;23.808;2023-08-31T10:48:22;94375.00;;;25.34;41.06
62978;BME280;49073;42.352;23.808;2023-08-31T10:51:27;94374.81;;;25.38;42.02
62978;BME280;49073;42.352;23.808;2023-08-31T10:54:33;94380.28;;;25.38;39.54
62978;BME280;49073;42.352;23.808;2023-08-31T10:57:37;94374.06;;;25.28;39.01
62978;BME280;49073;42.352;23.808;2023-08-31T11:00:52;94383.47;;;25.36;40.32
62978;BME280;49073;42.352;23.808;2023-08-31T11:03:59;94379.53;;;25.28;40.17
62978;BME280;49073;42.352;23.808;2023-08-31T11:07:20;94379.69;;;25.34;39.77
62978;BME280;49073;42.352;23.808;2023-08-31T11:10:24;94373.69;;;25.73;40.18
62978;BME280;49073;42.352;23.808;2023-08-31T11:13:27;94384.88;;;25.84;38.26
62978;BME280;49073;42.352;23.808;2023-08-31T11:16:30;94369.91;;;25.70;38.41
62978;BME280;49073;42.352;23.808;2023-08-31T11:19:32;94366.78;;;25.96;38.05
62978;BME280;49073;42.352;23.808;2023-08-31T11:22:33;94372.47;;;26.17;37.28
62978;BME280;49073;42.352;23.808;2023-08-31T11:25:33;94371.34;;;25.90;37.26
62978;BME280;49073;42.352;23.808;2023-08-31T11:28:34;94360.16;;;25.88;38.97
62978;BME280;49073;42.352;23.808;2023-08-31T11:31:38;94365.81;;;26.08;37.80
62978;BME280;49073;42.352;23.808;2023-08-31T11:34:45;94361.44;;;26.02;36.84
62978;BME280;49073;42.352;23.808;2023-08-31T11:37:50;94361.66;;;25.89;37.17
62978;BME280;49073;42.352;23.808;2023-08-31T11:40:56;94369.38;;;25.90;37.16
62978;BME280;49073;42.352;23.808;2023-08-31T11:43:56;94367.31;;;25.76;36.82
62978;BME280;49073;42.352;23.808;2023-08-31T11:46:57;94371.00;;;25.63;37.22
62978;BME280;49073;42.352;23.808;2023-08-31T11:50:01;94362.03;;;25.63;37.70
62978;BME280;49073;42.352;23.808;2023-08-31T11:53:04;94362.66;;;25.67;38.61
62978;BME280;49073;42.352;23.808;2023-08-31T11:56:05;94354.88;;;25.75;37.17
62978;BME280;49073;42.352;23.808;2023-08-31T11:59:10;94352.44;;;25.77;36.63
62978;BME280;49073;42.352;23.808;2023-08-31T12:02:13;94356.72;;;25.68;37.22
62978;BME280;49073;42.352;23.808;2023-08-31T12:05:13;94358.28;;;25.60;35.69
62978;BME280;49073;42.352;23.808;2023-08-31T12:08:14;94352.81;;;25.60;36.70
62978;BME280;49073;42.352;23.808;2023-08-31T12:11:16;94353.69;;;25.66;36.06
62978;BME280;49073;42.352;23.808;2023-08-31T12:14:23;94349.13;;;25.73;36.29
62978;BME280;49073;42.352;23.808;2023-08-31T12:17:24;94345.44;;;26.19;36.02
62978;BME280;49073;42.352;23.808;2023-08-31T12:20:25;94347.06;;;26.74;34.74
62978;BME280;49073;42.352;23.808;2023-08-31T12:23:29;94348.53;;;26.99;35.01
62978;BME280;49073;42.352;23.808;2023-08-31T12:26:30;94355.97;;;26.60;34.42
62978;BME280;49073;42.352;23.808;2023-08-31T12:29:30;94349.00;;;26.34;34.51
62978;BME280;49073;42.352;23.808;2023-08-31T12:32:31;94355.44;;;26.22;35.08
62978;BME280;49073;42.352;23.808;2023-08-31T12:35:31;94349.75;;;26.01;35.89
62978;BME280;49073;42.352;23.808;2023-08-31T12:38:34;94353.41;;;25.98;36.06
62978;BME280;49073;42.352;23.808;2023-08-31T12:41:35;94356.81;;;25.83;34.66
62978;BME280;49073;42.352;23.808;2023-08-31T12:44:36;94354.84;;;25.84;36.77
62978;BME280;49073;42.352;23.808;2023-08-31T12:47:37;94352.59;;;25.82;36.60
62978;BME280;49073;42.352;23.808;2023-08-31T12:50:38;94348.16;;;25.94;37.29
62978;BME280;49073;42.352;23.808;2023-08-31T12:53:38;94338.13;;;25.91;39.07
62978;BME280;49073;42.352;23.808;2023-08-31T12:56:40;94339.56;;;26.11;38.71
62978;BME280;49073;42.352;23.808;2023-08-31T12:59:41;94331.84;;;26.34;34.81
62978;BME280;49073;42.352;23.808;2023-08-31T13:02:42;94337.59;;;26.36;33.93
62978;BME280;49073;42.352;23.808;2023-08-31T13:05:45;94332.13;;;26.36;35.48
62978;BME280;49073;42.352;23.808;2023-08-31T13:08:45;94332.50;;;26.28;34.76
62978;BME280;49073;42.352;23.808;2023-08-31T13:11:46;94337.22;;;26.28;34.59
62978;BME280;49073;42.352;23.808;2023-08-31T13:14:46;94341.50;;;26.10;33.97
62978;BME280;49073;42.352;23.808;2023-08-31T13:17:47;94336.25;;;26.07;34.39
62978;BME280;49073;42.352;23.808;2023-08-31T13:20:54;94328.75;;;26.17;35.11
62978;BME280;49073;42.352;23.808;2023-08-31T13:23:55;94332.00;;;26.06;34.81
62978;BME280;49073;42.352;23.808;2023-08-31T13:26:57;94335.66;;;26.03;35.44
62978;BME280;49073;42.352;23.808;2023-08-31T13:29:57;94347.66;;;25.96;35.69
62978;BME280;49073;42.352;23.808;2023-08-31T13:32:58;94351.91;;;25.97;35.95
62978;BME280;49073;42.352;23.808;2023-08-31T13:35:59;94350.53;;;26.02;35.43
62978;BME280;49073;42.352;23.808;2023-08-31T13:38:59;94352.97;;;25.99;35.77
62978;BME280;49073;42.352;23.808;2023-08-31T13:42:00;94347.31;;;26.03;34.74
62978;BME280;49073;42.352;23.808;2023-08-31T13:45:07;94355.66;;;26.09;34.61
62978;BME280;49073;42.352;23.808;2023-08-31T13:48:08;94359.94;;;26.00;35.64
62978;BME280;49073;42.352;23.808;2023-08-31T13:51:08;94351.47;;;25.89;37.26
62978;BME280;49073;42.352;23.808;2023-08-31T13:54:09;94365.00;;;25.83;36.19
62978;BME280;49073;42.352;23.808;2023-08-31T13:57:10;94353.91;;;25.87;35.34
62978;BME280;49073;42.352;23.808;2023-08-31T14:00:11;94357.03;;;26.04;35.73
62978;BME280;49073;42.352;23.808;2023-08-31T14:03:11;94364.69;;;26.24;34.84
62978;BME280;49073;42.352;23.808;2023-08-31T14:06:12;94350.03;;;26.37;36.69
62978;BME280;49073;42.352;23.808;2023-08-31T14:09:14;94349.22;;;26.46;36.41
62978;BME280;49073;42.352;23.808;2023-08-31T14:12:15;94357.31;;;26.40;35.94
62978;BME280;49073;42.352;23.808;2023-08-31T14:15:15;94364.84;;;26.21;35.90
62978;BME280;49073;42.352;23.808;2023-08-31T14:18:16;94367.53;;;25.96;35.99
62978;BME280;49073;42.352;23.808;2023-08-31T14:21:17;94368.16;;;25.91;36.54
62978;BME280;49073;42.352;23.808;2023-08-31T14:24:17;94359.72;;;25.80;36.63
62978;BME280;49073;42.352;23.808;2023-08-31T14:27:18;94372.03;;;25.75;37.00
62978;BME280;49073;42.352;23.808;2023-08-31T14:30:18;94368.81;;;25.77;37.04
62978;BME280;49073;42.352;23.808;2023-08-31T14:33:19;94368.63;;;25.90;36.78
62978;BME280;49073;42.352;23.808;2023-08-31T14:36:19;94368.44;;;26.03;35.66
62978;BME280;49073;42.352;23.808;2023-08-31T14:39:19;94373.69;;;26.16;35.90
62978;BME280;49073;42.352;23.808;2023-08-31T14:42:20;94371.56;;;26.10;35.54
62978;BME280;49073;42.352;23.808;2023-08-31T14:45:21;94363.88;;;25.99;36.38
62978;BME280;49073;42.352;23.808;2023-08-31T14:48:22;94372.88;;;25.91;36.15
62978;BME280;49073;42.352;23.808;2023-08-31T14:51:22;94381.69;;;25.85;36.69
62978;BME280;49073;42.352;23.808;2023-08-31T14:54:23;94380.50;;;25.77;36.32
62978;BME280;49073;42.352;23.808;2023-08-31T14:57:23;94381.53;;;25.80;36.53
62978;BME280;49073;42.352;23.808;2023-08-31T15:00:24;94382.31;;;25.80;36.67
62978;BME280;49073;42.352;23.808;2023-08-31T15:03:24;94379.06;;;25.91;37.04
62978;BME280;49073;42.352;23.808;2023-08-31T15:06:25;94380.28;;;25.99;36.42
62978;BME280;49073;42.352;23.808;2023-08-31T15:09:26;94376.88;;;26.14;35.82
62978;BME280;49073;42.352;23.808;2023-08-31T15:12:27;94372.38;;;26.02;35.46
62978;BME280;49073;42.352;23.808;2023-08-31T15:15:28;94375.13;;;25.92;35.95
62978;BME280;49073;42.352;23.808;2023-08-31T15:18:29;94376.28;;;25.76;36.08
62978;BME280;49073;42.352;23.808;2023-08-31T15:21:30;94378.28;;;25.57;36.33
62978;BME280;49073;42.352;23.808;2023-08-31T15:24:31;94375.72;;;25.44;35.74
62978;BME280;49073;42.352;23.808;2023-08-31T15:27:32;94377.72;;;25.34;36.24
62978;BME280;49073;42.352;23.808;2023-08-31T15:30:33;94388.03;;;25.21;36.64
62978;BME280;49073;42.352;23.808;2023-08-31T15:33:35;94381.97;;;25.07;36.77
62978;BME280;49073;42.352;23.808;2023-08-31T15:36:35;94384.72;;;25.07;36.62
62978;BME280;49073;42.352;23.808;2023-08-31T15:39:36;94382.00;;;24.98;37.15
62978;BME280;49073;42.352;23.808;2023-08-31T15:42:36;94379.88;;;24.83;37.09
62978;BME280;49073;42.352;23.808;2023-08-31T15:45:37;94388.38;;;24.76;37.00
62978;BME280;49073;42.352;23.808;2023-08-31T15:48:37;94393.47;;;24.74;37.20
62978;BME280;49073;42.352;23.808;2023-08-31T15:51:39;94390.91;;;24.70;37.23
62978;BME280;49073;42.352;23.808;2023-08-31T15:54:39;94405.88;;;24.66;37.66
62978;BME280;49073;42.352;23.808;2023-08-31T15:57:40;94404.66;;;24.58;37.33
62978;BME280;49073;42.352;23.808;2023-08-31T16:00:40;94407.97;;;24.52;37.86
62978;BME280;49073;42.352;23.808;2023-08-31T16:03:41;94414.00;;;24.47;37.93